sensor_id;sensor_type;location;lat;lon;timestamp;pressure;altitude;pressure_sealevel;temperature;humidity
11345;BME280;5727;42.600;23.028;2022-09-17T00:01:17;92891.72;;;17.75;100.00
11345;BME280;5727;42.600;23.028;2022-09-17T00:03:48;92875.06;;;17.74;100.00
11345;BME280;5727;42.600;23.028;2022-09-17T00:06:17;92867.50;;;17.76;100.00
11345;BME280;5727;42.600;23.028;2022-09-17T00:08:44;92870.50;;;17.78;100.00
11345;BME280;5727;42.600;23.028;2022-09-17T00:11:12;92870.13;;;17.76;100.00
11345;BME280;5727;42.600;23.028;2022-09-17T00:13:40;92873.53;;;17.77;100.00
11345;BME280;5727;42.600;23.028;2022-09-17T00:16:09;92862.19;;;17.76;100.00
11345;BME280;5727;42.600;23.028;2022-09-17T00:18:36;92855.47;;;17.65;100.00
11345;BME280;5727;42.600;23.028;2022-09-17T00:21:06;92855.47;;;17.65;100.00
11345;BME280;5727;42.600;23.028;2022-09-17T00:23:33;92863.81;;;17.63;100.00
11345;BME280;5727;42.600;23.028;2022-09-17T00:26:03;92871.41;;;17.58;100.00
11345;BME280;5727;42.600;23.028;2022-09-17T00:28:32;92881.25;;;17.57;100.00
11345;BME280;5727;42.600;23.028;2022-09-17T00:30:59;92867.66;;;17.52;100.00
11345;BME280;5727;42.600;23.028;2022-09-17T00:33:27;92866.13;;;17.54;100.00
11345;BME280;5727;42.600;23.028;2022-09-17T00:35:57;92878.56;;;17.61;100.00
11345;BME280;5727;42.600;23.028;2022-09-17T00:38:24;92891.53;;;17.37;100.00
11345;BME280;5727;42.600;23.028;2022-09-17T00:40:51;92894.69;;;17.15;100.00
11345;BME280;5727;42.600;23.028;2022-09-17T00:43:32;92898.19;;;16.84;100.00
11345;BME280;5727;42.600;23.028;2022-09-17T00:45:59;92907.34;;;16.62;100.00
11345;BME280;5727;42.600;23.028;2022-09-17T00:48:28;92903.19;;;16.39;100.00
11345;BME280;5727;42.600;23.028;2022-09-17T00:50:55;92902.81;;;16.37;100.00
11345;BME280;5727;42.600;23.028;2022-09-17T00:53:26;92901.31;;;16.29;100.00
11345;BME280;5727;42.600;23.028;2022-09-17T00:55:59;92896.03;;;16.40;100.00
11345;BME280;5727;42.600;23.028;2022-09-17T00:58:27;92890.72;;;16.58;100.00
11345;BME280;5727;42.600;23.028;2022-09-17T01:00:55;92896.34;;;16.74;100.00
11345;BME280;5727;42.600;23.028;2022-09-17T01:03:22;92894.84;;;16.73;100.00
11345;BME280;5727;42.600;23.028;2022-09-17T01:05:57;92886.84;;;16.83;100.00
11345;BME280;5727;42.600;23.028;2022-09-17T01:08:40;92880.75;;;16.97;100.00
11345;BME280;5727;42.600;23.028;2022-09-17T01:11:31;92884.13;;;17.04;100.00
11345;BME280;5727;42.600;23.028;2022-09-17T01:14:14;92895.06;;;17.17;100.00
11345;BME280;5727;42.600;23.028;2022-09-17T01:16:52;92904.47;;;17.21;100.00
11345;BME280;5727;42.600;23.028;2022-09-17T01:19:48;92901.03;;;17.28;100.00
11345;BME280;5727;42.600;23.028;2022-09-17T01:22:22;92910.84;;;17.34;100.00
11345;BME280;5727;42.600;23.028;2022-09-17T01:25:07;92910.09;;;17.27;100.00
11345;BME280;5727;42.600;23.028;2022-09-17T01:31:12;92885.09;;;17.42;100.00
11345;BME280;5727;42.600;23.028;2022-09-17T01:33:49;92872.97;;;17.48;100.00
11345;BME280;5727;42.600;23.028;2022-09-17T01:36:25;92872.97;;;17.48;100.00
11345;BME280;5727;42.600;23.028;2022-09-17T01:39:02;92875.97;;;17.54;100.00
11345;BME280;5727;42.600;23.028;2022-09-17T01:41:36;92877.47;;;17.55;100.00
11345;BME280;5727;42.600;23.028;2022-09-17T01:44:10;92874.16;;;17.36;100.00
11345;BME280;5727;42.600;23.028;2022-09-17T01:46:43;92886.63;;;17.36;100.00
11345;BME280;5727;42.600;23.028;2022-09-17T01:49:14;92869.19;;;17.42;100.00
11345;BME280;5727;42.600;23.028;2022-09-17T01:51:44;92877.44;;;17.58;100.00
11345;BME280;5727;42.600;23.028;2022-09-17T01:54:17;92882.19;;;17.81;100.00
11345;BME280;5727;42.600;23.028;2022-09-17T01:56:51;92898.31;;;18.00;100.00
11345;BME280;5727;42.600;23.028;2022-09-17T01:59:24;92876.91;;;18.25;100.00
11345;BME280;5727;42.600;23.028;2022-09-17T02:01:57;92869.91;;;18.49;100.00
11345;BME280;5727;42.600;23.028;2022-09-17T02:04:29;92829.78;;;18.80;100.00
11345;BME280;5727;42.600;23.028;2022-09-17T02:07:02;92803.06;;;19.21;100.00
11345;BME280;5727;42.600;23.028;2022-09-17T02:09:35;92785.50;;;19.57;100.00
11345;BME280;5727;42.600;23.028;2022-09-17T02:12:06;92740.22;;;19.87;100.00
11345;BME280;5727;42.600;23.028;2022-09-17T02:14:40;92777.78;;;19.89;100.00
11345;BME280;5727;42.600;23.028;2022-09-17T02:17:15;92778.47;;;19.93;100.00
11345;BME280;5727;42.600;23.028;2022-09-17T02:19:46;92766.72;;;19.91;100.00
11345;BME280;5727;42.600;23.028;2022-09-17T02:22:19;92787.94;;;19.94;100.00
11345;BME280;5727;42.600;23.028;2022-09-17T02:24:55;92789.09;;;19.93;100.00
11345;BME280;5727;42.600;23.028;2022-09-17T02:27:33;92775.47;;;19.91;100.00
11345;BME280;5727;42.600;23.028;2022-09-17T02:30:03;92750.91;;;19.84;100.00
11345;BME280;5727;42.600;23.028;2022-09-17T02:32:31;92743.38;;;19.79;100.00
11345;BME280;5727;42.600;23.028;2022-09-17T02:34:58;92746.03;;;19.79;100.00
11345;BME280;5727;42.600;23.028;2022-09-17T02:37:25;92725.19;;;19.77;100.00
11345;BME280;5727;42.600;23.028;2022-09-17T02:39:53;92722.06;;;19.82;100.00
11345;BME280;5727;42.600;23.028;2022-09-17T02:42:23;92739.50;;;19.83;100.00
11345;BME280;5727;42.600;23.028;2022-09-17T02:45:00;92708.31;;;19.87;100.00
11345;BME280;5727;42.600;23.028;2022-09-17T02:47:47;92704.81;;;19.90;100.00
11345;BME280;5727;42.600;23.028;2022-09-17T02:50:29;92711.19;;;19.96;100.00
11345;BME280;5727;42.600;23.028;2022-09-17T02:53:09;92738.31;;;20.07;100.00
11345;BME280;5727;42.600;23.028;2022-09-17T02:55:49;92749.25;;;20.13;100.00
11345;BME280;5727;42.600;23.028;2022-09-17T02:58:27;92780.75;;;20.15;100.00
11345;BME280;5727;42.600;23.028;2022-09-17T03:00:59;92789.53;;;20.12;100.00
11345;BME280;5727;42.600;23.028;2022-09-17T03:03:32;92800.22;;;20.08;100.00
11345;BME280;5727;42.600;23.028;2022-09-17T03:05:59;92791.63;;;20.00;100.00
11345;BME280;5727;42.600;23.028;2022-09-17T03:08:28;92788.06;;;19.87;100.00
11345;BME280;5727;42.600;23.028;2022-09-17T03:10:55;92778.88;;;19.69;100.00
11345;BME280;5727;42.600;23.028;2022-09-17T03:13:22;92754.06;;;19.52;100.00
11345;BME280;5727;42.600;23.028;2022-09-17T03:15:49;92746.00;;;19.36;100.00
11345;BME280;5727;42.600;23.028;2022-09-17T03:18:16;92745.28;;;19.32;100.00
11345;BME280;5727;42.600;23.028;2022-09-17T03:20:44;92743.84;;;19.24;100.00
11345;BME280;5727;42.600;23.028;2022-09-17T03:23:11;92739.00;;;19.19;100.00
11345;BME280;5727;42.600;23.028;2022-09-17T03:25:38;92719.94;;;19.01;100.00
11345;BME280;5727;42.600;23.028;2022-09-17T03:28:04;92716.88;;;19.02;100.00
11345;BME280;5727;42.600;23.028;2022-09-17T03:30:31;92702.94;;;18.95;100.00
11345;BME280;5727;42.600;23.028;2022-09-17T03:32:58;92700.06;;;18.86;100.00
11345;BME280;5727;42.600;23.028;2022-09-17T03:35:24;92706.50;;;18.85;100.00
11345;BME280;5727;42.600;23.028;2022-09-17T03:37:53;92711.97;;;18.74;100.00
11345;BME280;5727;42.600;23.028;2022-09-17T03:40:19;92717.84;;;18.59;100.00
11345;BME280;5727;42.600;23.028;2022-09-17T03:42:46;92711.47;;;18.53;100.00
11345;BME280;5727;42.600;23.028;2022-09-17T03:45:13;92721.03;;;18.47;100.00
11345;BME280;5727;42.600;23.028;2022-09-17T03:47:40;92726.09;;;18.34;100.00
11345;BME280;5727;42.600;23.028;2022-09-17T03:50:07;92746.66;;;18.23;100.00
11345;BME280;5727;42.600;23.028;2022-09-17T03:52:34;92752.19;;;18.36;100.00
11345;BME280;5727;42.600;23.028;2022-09-17T03:55:02;92763.09;;;18.45;100.00
11345;BME280;5727;42.600;23.028;2022-09-17T03:57:29;92772.88;;;18.51;100.00
11345;BME280;5727;42.600;23.028;2022-09-17T03:59:57;92772.97;;;18.44;100.00
11345;BME280;5727;42.600;23.028;2022-09-17T04:02:24;92778.28;;;18.41;100.00
11345;BME280;5727;42.600;23.028;2022-09-17T04:04:50;92778.28;;;18.41;100.00
11345;BME280;5727;42.600;23.028;2022-09-17T04:07:18;92801.91;;;18.28;100.00
11345;BME280;5727;42.600;23.028;2022-09-17T04:09:45;92827.38;;;18.18;100.00
11345;BME280;5727;42.600;23.028;2022-09-17T04:12:13;92827.28;;;17.85;100.00
11345;BME280;5727;42.600;23.028;2022-09-17T04:14:39;92840.34;;;17.58;100.00
11345;BME280;5727;42.600;23.028;2022-09-17T04:17:06;92832.09;;;17.49;100.00
11345;BME280;5727;42.600;23.028;2022-09-17T04:19:33;92832.88;;;17.46;100.00
11345;BME280;5727;42.600;23.028;2022-09-17T04:22:00;92851.75;;;17.45;100.00
11345;BME280;5727;42.600;23.028;2022-09-17T04:24:26;92863.50;;;17.47;100.00
11345;BME280;5727;42.600;23.028;2022-09-17T04:26:53;92871.84;;;17.42;100.00
11345;BME280;5727;42.600;23.028;2022-09-17T04:29:21;92889.97;;;17.47;100.00
11345;BME280;5727;42.600;23.028;2022-09-17T04:31:48;92889.22;;;17.54;100.00
11345;BME280;5727;42.600;23.028;2022-09-17T04:34:15;92896.41;;;17.50;100.00
11345;BME280;5727;42.600;23.028;2022-09-17T04:36:41;92895.28;;;17.44;100.00
11345;BME280;5727;42.600;23.028;2022-09-17T04:39:08;92900.16;;;17.52;100.00
11345;BME280;5727;42.600;23.028;2022-09-17T04:41:35;92920.63;;;17.41;100.00
11345;BME280;5727;42.600;23.028;2022-09-17T04:44:02;92932.03;;;17.34;100.00
11345;BME280;5727;42.600;23.028;2022-09-17T04:46:30;92943.00;;;17.29;100.00
11345;BME280;5727;42.600;23.028;2022-09-17T04:48:57;92941.91;;;17.20;100.00
11345;BME280;5727;42.600;23.028;2022-09-17T04:51:24;92916.22;;;17.20;100.00
11345;BME280;5727;42.600;23.028;2022-09-17T04:53:50;92907.47;;;17.27;100.00
11345;BME280;5727;42.600;23.028;2022-09-17T04:56:17;92898.38;;;17.31;100.00
11345;BME280;5727;42.600;23.028;2022-09-17T04:58:44;92899.13;;;17.32;100.00
11345;BME280;5727;42.600;23.028;2022-09-17T05:01:11;92897.97;;;17.33;100.00
11345;BME280;5727;42.600;23.028;2022-09-17T05:03:40;92903.66;;;17.35;100.00
11345;BME280;5727;42.600;23.028;2022-09-17T05:06:07;92902.09;;;17.48;100.00
11345;BME280;5727;42.600;23.028;2022-09-17T05:08:34;92893.75;;;17.53;100.00
11345;BME280;5727;42.600;23.028;2022-09-17T05:11:01;92892.63;;;17.47;100.00
11345;BME280;5727;42.600;23.028;2022-09-17T05:13:28;92877.13;;;17.46;100.00
11345;BME280;5727;42.600;23.028;2022-09-17T05:15:55;92870.69;;;17.54;100.00
11345;BME280;5727;42.600;23.028;2022-09-17T05:18:22;92878.56;;;17.61;100.00
11345;BME280;5727;42.600;23.028;2022-09-17T05:20:50;92871.31;;;17.68;100.00
11345;BME280;5727;42.600;23.028;2022-09-17T05:23:17;92872.81;;;17.73;100.00
11345;BME280;5727;42.600;23.028;2022-09-17T05:25:44;92884.13;;;17.80;100.00
11345;BME280;5727;42.600;23.028;2022-09-17T05:28:11;92884.13;;;17.80;100.00
11345;BME280;5727;42.600;23.028;2022-09-17T05:30:38;92880.63;;;17.87;100.00
11345;BME280;5727;42.600;23.028;2022-09-17T05:33:05;92879.41;;;17.98;100.00
11345;BME280;5727;42.600;23.028;2022-09-17T05:35:33;92892.22;;;18.07;100.00
11345;BME280;5727;42.600;23.028;2022-09-17T05:38:03;92893.75;;;18.04;100.00
11345;BME280;5727;42.600;23.028;2022-09-17T05:40:31;92887.28;;;18.09;100.00
11345;BME280;5727;42.600;23.028;2022-09-17T05:42:58;92863.75;;;18.14;100.00
11345;BME280;5727;42.600;23.028;2022-09-17T05:45:25;92857.31;;;18.15;100.00
11345;BME280;5727;42.600;23.028;2022-09-17T05:47:56;92861.81;;;18.22;100.00
11345;BME280;5727;42.600;23.028;2022-09-17T05:50:23;92863.72;;;18.18;100.00
11345;BME280;5727;42.600;23.028;2022-09-17T05:52:50;92861.41;;;18.23;100.00
11345;BME280;5727;42.600;23.028;2022-09-17T05:55:20;92853.41;;;18.27;100.00
11345;BME280;5727;42.600;23.028;2022-09-17T05:57:47;92848.88;;;18.27;100.00
11345;BME280;5727;42.600;23.028;2022-09-17T06:00:15;92846.13;;;18.35;100.00
11345;BME280;5727;42.600;23.028;2022-09-17T06:02:42;92850.25;;;18.43;100.00
11345;BME280;5727;42.600;23.028;2022-09-17T06:05:09;92859.25;;;18.52;100.00
11345;BME280;5727;42.600;23.028;2022-09-17T06:07:35;92872.16;;;18.54;100.00
11345;BME280;5727;42.600;23.028;2022-09-17T06:10:03;92877.44;;;18.54;100.00
11345;BME280;5727;42.600;23.028;2022-09-17T06:12:32;92888.78;;;18.54;100.00
11345;BME280;5727;42.600;23.028;2022-09-17T06:15:00;92902.53;;;18.46;100.00
11345;BME280;5727;42.600;23.028;2022-09-17T06:17:27;92908.59;;;18.43;100.00
11345;BME280;5727;42.600;23.028;2022-09-17T06:19:54;92921.88;;;18.43;100.00
11345;BME280;5727;42.600;23.028;2022-09-17T06:22:21;92927.50;;;18.48;100.00
11345;BME280;5727;42.600;23.028;2022-09-17T06:24:47;92922.88;;;18.59;100.00
11345;BME280;5727;42.600;23.028;2022-09-17T06:27:14;92928.09;;;18.66;100.00
11345;BME280;5727;42.600;23.028;2022-09-17T06:29:42;92913.66;;;18.71;100.00
11345;BME280;5727;42.600;23.028;2022-09-17T06:32:09;92902.25;;;18.74;100.00
11345;BME280;5727;42.600;23.028;2022-09-17T06:34:37;92900.56;;;18.87;100.00
11345;BME280;5727;42.600;23.028;2022-09-17T06:37:05;92895.16;;;18.97;100.00
11345;BME280;5727;42.600;23.028;2022-09-17T06:39:32;92881.50;;;18.99;100.00
11345;BME280;5727;42.600;23.028;2022-09-17T06:41:59;92883.06;;;18.93;100.00
11345;BME280;5727;42.600;23.028;2022-09-17T06:44:25;92892.88;;;18.99;100.00
11345;BME280;5727;42.600;23.028;2022-09-17T06:46:53;92895.13;;;19.01;100.00
11345;BME280;5727;42.600;23.028;2022-09-17T06:49:20;92871.09;;;19.11;100.00
11345;BME280;5727;42.600;23.028;2022-09-17T06:51:47;92858.72;;;19.01;100.00
11345;BME280;5727;42.600;23.028;2022-09-17T06:54:14;92864.63;;;19.12;100.00
11345;BME280;5727;42.600;23.028;2022-09-17T06:56:40;92839.34;;;19.31;100.00
11345;BME280;5727;42.600;23.028;2022-09-17T06:59:07;92821.22;;;19.26;100.00
11345;BME280;5727;42.600;23.028;2022-09-17T07:01:34;92839.25;;;19.42;100.00
11345;BME280;5727;42.600;23.028;2022-09-17T07:04:02;92862.38;;;19.68;100.00
11345;BME280;5727;42.600;23.028;2022-09-17T07:06:29;92851.38;;;19.92;100.00
11345;BME280;5727;42.600;23.028;2022-09-17T07:08:57;92807.22;;;19.98;100.00
11345;BME280;5727;42.600;23.028;2022-09-17T07:11:24;92801.75;;;20.09;100.00
11345;BME280;5727;42.600;23.028;2022-09-17T07:13:51;92793.44;;;20.30;100.00
11345;BME280;5727;42.600;23.028;2022-09-17T07:16:18;92802.75;;;20.38;100.00
11345;BME280;5727;42.600;23.028;2022-09-17T07:18:45;92814.50;;;20.41;100.00
11345;BME280;5727;42.600;23.028;2022-09-17T07:21:13;92815.72;;;20.56;100.00
11345;BME280;5727;42.600;23.028;2022-09-17T07:23:40;92817.88;;;20.64;100.00
11345;BME280;5727;42.600;23.028;2022-09-17T07:26:12;92813.66;;;20.67;100.00
11345;BME280;5727;42.600;23.028;2022-09-17T07:28:39;92826.72;;;20.97;100.00
11345;BME280;5727;42.600;23.028;2022-09-17T07:31:07;92818.69;;;21.20;100.00
11345;BME280;5727;42.600;23.028;2022-09-17T07:33:34;92827.97;;;21.12;100.00
11345;BME280;5727;42.600;23.028;2022-09-17T07:36:03;92819.22;;;21.12;100.00
11345;BME280;5727;42.600;23.028;2022-09-17T07:38:32;92806.75;;;21.25;100.00
11345;BME280;5727;42.600;23.028;2022-09-17T07:41:01;92813.97;;;21.44;100.00
11345;BME280;5727;42.600;23.028;2022-09-17T07:43:30;92806.41;;;21.58;100.00
11345;BME280;5727;42.600;23.028;2022-09-17T07:45:58;92812.81;;;21.77;100.00
11345;BME280;5727;42.600;23.028;2022-09-17T07:48:25;92806.94;;;21.86;100.00
11345;BME280;5727;42.600;23.028;2022-09-17T07:50:54;92803.28;;;21.96;100.00
11345;BME280;5727;42.600;23.028;2022-09-17T07:53:21;92789.63;;;21.94;100.00
11345;BME280;5727;42.600;23.028;2022-09-17T07:55:53;92788.19;;;21.89;100.00
11345;BME280;5727;42.600;23.028;2022-09-17T07:58:21;92784.63;;;21.96;100.00
11345;BME280;5727;42.600;23.028;2022-09-17T08:00:48;92780.84;;;21.93;100.00
11345;BME280;5727;42.600;23.028;2022-09-17T08:03:15;92772.41;;;22.11;100.00
11345;BME280;5727;42.600;23.028;2022-09-17T08:05:42;92760.25;;;22.10;100.00
11345;BME280;5727;42.600;23.028;2022-09-17T08:08:08;92768.16;;;22.13;100.00
11345;BME280;5727;42.600;23.028;2022-09-17T08:10:35;92763.81;;;22.19;100.00
11345;BME280;5727;42.600;23.028;2022-09-17T08:13:03;92762.31;;;22.47;100.00
11345;BME280;5727;42.600;23.028;2022-09-17T08:15:30;92763.19;;;22.73;100.00
11345;BME280;5727;42.600;23.028;2022-09-17T08:17:57;92759.03;;;22.97;100.00
11345;BME280;5727;42.600;23.028;2022-09-17T08:20:23;92770.06;;;23.11;100.00
11345;BME280;5727;42.600;23.028;2022-09-17T08:22:57;92766.84;;;23.04;100.00
11345;BME280;5727;42.600;23.028;2022-09-17T08:25:24;92760.84;;;23.00;100.00
11345;BME280;5727;42.600;23.028;2022-09-17T08:27:52;92757.00;;;22.88;100.00
11345;BME280;5727;42.600;23.028;2022-09-17T08:30:21;92766.19;;;23.00;100.00
11345;BME280;5727;42.600;23.028;2022-09-17T08:32:48;92771.47;;;23.16;100.00
11345;BME280;5727;42.600;23.028;2022-09-17T08:35:15;92767.31;;;23.27;100.00
11345;BME280;5727;42.600;23.028;2022-09-17T08:37:42;92763.78;;;23.05;100.00
11345;BME280;5727;42.600;23.028;2022-09-17T08:40:14;92760.03;;;23.15;100.00
11345;BME280;5727;42.600;23.028;2022-09-17T08:42:50;92776.69;;;23.07;100.00
11345;BME280;5727;42.600;23.028;2022-09-17T08:45:22;92785.31;;;22.98;100.00
11345;BME280;5727;42.600;23.028;2022-09-17T08:47:53;92782.00;;;22.82;100.00
11345;BME280;5727;42.600;23.028;2022-09-17T08:50:28;92789.09;;;22.43;100.00
11345;BME280;5727;42.600;23.028;2022-09-17T08:53:15;92787.09;;;22.03;100.00
11345;BME280;5727;42.600;23.028;2022-09-17T08:55:53;92787.53;;;21.85;100.00
11345;BME280;5727;42.600;23.028;2022-09-17T08:58:39;92781.25;;;21.59;100.00
11345;BME280;5727;42.600;23.028;2022-09-17T09:01:24;92792.72;;;21.24;100.00
11345;BME280;5727;42.600;23.028;2022-09-17T09:04:04;92793.84;;;21.07;100.00
11345;BME280;5727;42.600;23.028;2022-09-17T09:06:38;92795.13;;;20.99;100.00
11345;BME280;5727;42.600;23.028;2022-09-17T09:09:12;92803.34;;;20.69;100.00
11345;BME280;5727;42.600;23.028;2022-09-17T09:11:41;92801.06;;;20.28;100.00
11345;BME280;5727;42.600;23.028;2022-09-17T09:14:12;92816.94;;;20.08;100.00
11345;BME280;5727;42.600;23.028;2022-09-17T09:16:47;92822.97;;;19.89;100.00
11345;BME280;5727;42.600;23.028;2022-09-17T09:19:22;92828.13;;;19.73;100.00
11345;BME280;5727;42.600;23.028;2022-09-17T09:22:00;92827.97;;;19.61;100.00
11345;BME280;5727;42.600;23.028;2022-09-17T09:24:36;92843.09;;;19.64;100.00
11345;BME280;5727;42.600;23.028;2022-09-17T09:27:14;92845.56;;;19.51;100.00
11345;BME280;5727;42.600;23.028;2022-09-17T09:29:47;92862.16;;;19.29;100.00
11345;BME280;5727;42.600;23.028;2022-09-17T09:32:32;92878.94;;;19.22;100.00
11345;BME280;5727;42.600;23.028;2022-09-17T09:35:13;92878.97;;;19.18;100.00
11345;BME280;5727;42.600;23.028;2022-09-17T09:37:53;92889.25;;;19.16;100.00
11345;BME280;5727;42.600;23.028;2022-09-17T09:40:30;92888.13;;;19.14;100.00
11345;BME280;5727;42.600;23.028;2022-09-17T09:43:01;92882.34;;;19.23;100.00
11345;BME280;5727;42.600;23.028;2022-09-17T09:45:38;92860.59;;;19.31;100.00
11345;BME280;5727;42.600;23.028;2022-09-17T09:48:19;92831.03;;;19.29;100.00
11345;BME280;5727;42.600;23.028;2022-09-17T09:51:04;92839.81;;;19.26;100.00
11345;BME280;5727;42.600;23.028;2022-09-17T09:53:44;92817.44;;;19.24;100.00
11345;BME280;5727;42.600;23.028;2022-09-17T09:56:28;92781.78;;;19.25;100.00
11345;BME280;5727;42.600;23.028;2022-09-17T09:58:59;92758.94;;;19.31;100.00
11345;BME280;5727;42.600;23.028;2022-09-17T10:01:26;92761.50;;;19.38;100.00
11345;BME280;5727;42.600;23.028;2022-09-17T10:03:55;92744.41;;;19.39;100.00
11345;BME280;5727;42.600;23.028;2022-09-17T10:06:23;92732.59;;;19.43;100.00
11345;BME280;5727;42.600;23.028;2022-09-17T10:09:10;92704.19;;;19.40;100.00
11345;BME280;5727;42.600;23.028;2022-09-17T10:11:38;92729.59;;;19.41;100.00
11345;BME280;5727;42.600;23.028;2022-09-17T10:14:21;92743.69;;;19.38;100.00
11345;BME280;5727;42.600;23.028;2022-09-17T10:16:49;92744.34;;;19.42;100.00
11345;BME280;5727;42.600;23.028;2022-09-17T10:19:20;92750.44;;;19.43;100.00
11345;BME280;5727;42.600;23.028;2022-09-17T10:21:50;92760.28;;;19.42;100.00
11345;BME280;5727;42.600;23.028;2022-09-17T10:24:22;92759.31;;;19.56;100.00
11345;BME280;5727;42.600;23.028;2022-09-17T10:26:50;92778.81;;;19.72;100.00
11345;BME280;5727;42.600;23.028;2022-09-17T10:29:19;92770.56;;;19.90;100.00
11345;BME280;5727;42.600;23.028;2022-09-17T10:31:47;92764.63;;;20.02;100.00
11345;BME280;5727;42.600;23.028;2022-09-17T10:34:21;92772.75;;;20.18;100.00
11345;BME280;5727;42.600;23.028;2022-09-17T10:36:49;92776.50;;;20.21;100.00
11345;BME280;5727;42.600;23.028;2022-09-17T10:39:36;92767.03;;;20.39;100.00
11345;BME280;5727;42.600;23.028;2022-09-17T10:42:13;92761.50;;;20.50;100.00
11345;BME280;5727;42.600;23.028;2022-09-17T10:44:50;92759.25;;;20.48;100.00
11345;BME280;5727;42.600;23.028;2022-09-17T10:47:21;92760.88;;;20.42;100.00
11345;BME280;5727;42.600;23.028;2022-09-17T10:49:54;92767.03;;;20.59;100.00
11345;BME280;5727;42.600;23.028;2022-09-17T10:52:26;92757.69;;;20.51;100.00
11345;BME280;5727;42.600;23.028;2022-09-17T10:55:17;92777.44;;;20.50;100.00
11345;BME280;5727;42.600;23.028;2022-09-17T10:58:16;92788.66;;;20.41;100.00
11345;BME280;5727;42.600;23.028;2022-09-17T11:00:58;92782.31;;;20.35;100.00
11345;BME280;5727;42.600;23.028;2022-09-17T11:09:46;92760.88;;;20.23;100.00
11345;BME280;5727;42.600;23.028;2022-09-17T11:12:29;92755.50;;;20.03;100.00
11345;BME280;5727;42.600;23.028;2022-09-17T11:15:02;92755.69;;;19.92;100.00
11345;BME280;5727;42.600;23.028;2022-09-17T11:17:45;92755.81;;;19.85;100.00
11345;BME280;5727;42.600;23.028;2022-09-17T11:20:25;92762.81;;;19.76;100.00
11345;BME280;5727;42.600;23.028;2022-09-17T11:23:02;92747.84;;;19.62;100.00
11345;BME280;5727;42.600;23.028;2022-09-17T11:25:42;92749.56;;;19.49;100.00
11345;BME280;5727;42.600;23.028;2022-09-17T11:28:27;92761.22;;;19.32;100.00
11345;BME280;5727;42.600;23.028;2022-09-17T11:31:07;92754.38;;;19.31;100.00
11345;BME280;5727;42.600;23.028;2022-09-17T11:33:51;92735.66;;;19.15;100.00
11345;BME280;5727;42.600;23.028;2022-09-17T11:36:26;92731.00;;;18.96;100.00
11345;BME280;5727;42.600;23.028;2022-09-17T11:38:56;92720.56;;;18.82;100.00
11345;BME280;5727;42.600;23.028;2022-09-17T11:41:29;92720.56;;;18.82;100.00
11345;BME280;5727;42.600;23.028;2022-09-17T11:44:04;92713.41;;;18.79;100.00
11345;BME280;5727;42.600;23.028;2022-09-17T11:46:38;92705.19;;;18.70;100.00
11345;BME280;5727;42.600;23.028;2022-09-17T11:49:26;92696.16;;;18.64;100.00
11345;BME280;5727;42.600;23.028;2022-09-17T11:52:00;92718.97;;;18.58;100.00
11345;BME280;5727;42.600;23.028;2022-09-17T11:54:32;92729.34;;;18.49;100.00
11345;BME280;5727;42.600;23.028;2022-09-17T11:57:09;92730.41;;;18.55;100.00
11345;BME280;5727;42.600;23.028;2022-09-17T11:59:42;92737.53;;;18.58;100.00
11345;BME280;5727;42.600;23.028;2022-09-17T12:02:21;92748.97;;;18.55;100.00
11345;BME280;5727;42.600;23.028;2022-09-17T12:04:55;92761.59;;;18.44;100.00
11345;BME280;5727;42.600;23.028;2022-09-17T12:07:32;92760.09;;;18.43;100.00
11345;BME280;5727;42.600;23.028;2022-09-17T12:10:14;92755.56;;;18.40;100.00
11345;BME280;5727;42.600;23.028;2022-09-17T12:12:51;92752.19;;;18.36;100.00
11345;BME280;5727;42.600;23.028;2022-09-17T12:15:21;92750.34;;;18.33;100.00
11345;BME280;5727;42.600;23.028;2022-09-17T12:17:54;92727.78;;;18.17;100.00
11345;BME280;5727;42.600;23.028;2022-09-17T12:20:28;92725.28;;;18.03;100.00
11345;BME280;5727;42.600;23.028;2022-09-17T12:22:57;92737.81;;;17.99;100.00
11345;BME280;5727;42.600;23.028;2022-09-17T12:25:30;92724.25;;;17.94;100.00
11345;BME280;5727;42.600;23.028;2022-09-17T12:28:03;92728.00;;;17.96;100.00
11345;BME280;5727;42.600;23.028;2022-09-17T12:30:36;92725.09;;;17.84;100.00
11345;BME280;5727;42.600;23.028;2022-09-17T12:33:16;92722.09;;;17.82;100.00
11345;BME280;5727;42.600;23.028;2022-09-17T12:36:02;92709.97;;;17.81;100.00
11345;BME280;5727;42.600;23.028;2022-09-17T12:38:56;92700.53;;;17.80;100.00
11345;BME280;5727;42.600;23.028;2022-09-17T12:41:30;92701.69;;;17.79;100.00
11345;BME280;5727;42.600;23.028;2022-09-17T12:44:10;92694.84;;;17.81;100.00
11345;BME280;5727;42.600;23.028;2022-09-17T12:46:52;92705.13;;;17.76;100.00
11345;BME280;5727;42.600;23.028;2022-09-17T12:52:25;92700.59;;;17.76;100.00
11345;BME280;5727;42.600;23.028;2022-09-17T12:55:11;92689.59;;;17.78;100.00
11345;BME280;5727;42.600;23.028;2022-09-17T12:57:54;92691.84;;;17.79;100.00
11345;BME280;5727;42.600;23.028;2022-09-17T13:00:25;92698.34;;;17.75;100.00
11345;BME280;5727;42.600;23.028;2022-09-17T13:02:59;92689.66;;;17.71;100.00
11345;BME280;5727;42.600;23.028;2022-09-17T13:05:42;92682.41;;;17.78;100.00
11345;BME280;5727;42.600;23.028;2022-09-17T13:08:30;92671.75;;;17.82;100.00
11345;BME280;5727;42.600;23.028;2022-09-17T13:11:33;92674.06;;;17.80;100.00
11345;BME280;5727;42.600;23.028;2022-09-17T13:14:08;92671.75;;;17.82;100.00
11345;BME280;5727;42.600;23.028;2022-09-17T13:16:43;92662.28;;;17.84;100.00
11345;BME280;5727;42.600;23.028;2022-09-17T13:19:22;92652.78;;;17.87;100.00
11345;BME280;5727;42.600;23.028;2022-09-17T13:21:52;92652.41;;;17.88;100.00
11345;BME280;5727;42.600;23.028;2022-09-17T13:24:21;92645.94;;;17.89;100.00
11345;BME280;5727;42.600;23.028;2022-09-17T13:26:50;92660.69;;;17.90;100.00